Time;durP1;ratioP1;P1;durP2;ratioP2;P2;SDS_P1;SDS_P2;PMS_P1;PMS_P2;Temp;Humidity;BMP_temperature;BMP_pressure;BME280_temperature;BME280_humidity;BME280_pressure;Samples;Min_cycle;Max_cycle;Signal;HPM_P1;HPM_P2
2021/01/27 00:01:49;;;;;;;11.53;5.77;;;3.80;83.40;;;;;;5054469;28;20041;-74
2021/01/27 00:04:15;;;;;;;14.00;6.63;;;3.80;83.20;;;;;;5054452;28;20039;-74
2021/01/27 00:06:40;;;;;;;12.40;6.20;;;3.80;83.20;;;;;;5072595;28;20040;-75
2021/01/27 00:09:06;;;;;;;13.73;6.00;;;3.80;82.80;;;;;;5057941;28;20029;-79
2021/01/27 00:11:31;;;;;;;12.50;6.27;;;3.80;82.70;;;;;;5076228;28;20032;-78
2021/01/27 00:13:57;;;;;;;12.77;6.00;;;3.80;82.70;;;;;;5076289;28;20107;-73
2021/01/27 00:16:23;;;;;;;15.23;6.40;;;3.80;82.70;;;;;;5075975;28;20036;-73
2021/01/27 00:18:48;;;;;;;11.83;5.60;;;3.70;82.70;;;;;;5074797;28;20033;-74
2021/01/27 00:21:14;;;;;;;16.73;6.53;;;3.70;83.00;;;;;;5075921;28;20043;-73
2021/01/27 00:23:40;;;;;;;13.63;5.43;;;3.70;82.80;;;;;;5074903;28;20494;-74
2021/01/27 00:26:05;;;;;;;13.77;6.30;;;3.70;82.50;;;;;;5057676;28;20469;-73
2021/01/27 00:28:31;;;;;;;13.67;6.07;;;3.70;82.40;;;;;;5074228;28;20108;-74
2021/01/27 00:30:57;;;;;;;13.30;5.67;;;3.70;82.70;;;;;;5075639;28;20029;-74
2021/01/27 00:33:22;;;;;;;14.07;5.20;;;3.70;82.60;;;;;;5075670;28;20029;-74
2021/01/27 00:35:50;;;;;;;14.67;6.03;;;3.70;82.40;;;;;;5074185;28;20043;-74
2021/01/27 00:38:25;;;;;;;11.20;5.97;;;3.70;82.20;;;;;;5074091;28;20395;-74
2021/01/27 00:40:52;;;;;;;16.43;6.27;;;3.70;82.20;;;;;;5074041;28;20396;-74
2021/01/27 00:43:18;;;;;;;9.53;5.13;;;3.70;82.80;;;;;;5075289;28;20028;-74
2021/01/27 00:45:44;;;;;;;12.40;4.83;;;3.70;82.00;;;;;;5057386;28;20037;-73
2021/01/27 00:48:09;;;;;;;10.37;5.60;;;3.70;82.00;;;;;;5074991;28;20131;-74
2021/01/27 00:50:36;;;;;;;14.07;5.83;;;3.70;82.00;;;;;;5057298;28;20131;-75
2021/01/27 00:53:02;;;;;;;12.63;5.60;;;3.70;81.90;;;;;;5057403;28;20062;-74
2021/01/27 00:55:29;;;;;;;13.87;5.43;;;3.70;81.90;;;;;;5075105;28;20032;-74
2021/01/27 00:57:56;;;;;;;12.80;5.23;;;3.70;81.90;;;;;;5075010;28;20039;-74
2021/01/27 01:00:33;;;;;;;10.77;5.33;;;3.70;81.90;;;;;;5074999;28;20027;-75
2021/01/27 01:02:59;;;;;;;13.47;6.13;;;3.70;81.90;;;;;;5073681;28;20020;-74
2021/01/27 01:05:47;;;;;;;13.40;5.60;;;3.70;81.70;;;;;;5073709;28;20043;-74
2021/01/27 01:08:16;;;;;;;13.30;5.70;;;3.60;81.60;;;;;;5073445;28;20036;-75
2021/01/27 01:10:45;;;;;;;11.07;5.53;;;3.70;81.50;;;;;;5074763;28;20464;-73
2021/01/27 01:13:17;;;;;;;14.03;5.33;;;3.60;81.20;;;;;;5074780;28;20051;-73
2021/01/27 01:15:43;;;;;;;9.70;4.70;;;3.60;81.40;;;;;;5074831;28;20024;-74
2021/01/27 01:18:09;;;;;;;9.47;4.60;;;3.80;81.50;;;;;;5073148;28;20032;-74
2021/01/27 01:20:35;;;;;;;10.37;4.97;;;3.60;81.20;;;;;;5073322;28;20043;-75
2021/01/27 01:23:02;;;;;;;10.83;4.97;;;3.70;81.40;;;;;;5073379;28;20111;-74
2021/01/27 01:25:32;;;;;;;10.97;5.03;;;3.70;81.20;;;;;;5073309;28;20372;-74
2021/01/27 01:27:59;;;;;;;10.30;4.27;;;3.70;81.20;;;;;;5073188;28;20032;-73
2021/01/27 01:30:31;;;;;;;11.80;5.30;;;3.70;81.30;;;;;;5073276;28;20077;-74
2021/01/27 01:33:05;;;;;;;8.37;4.43;;;3.70;81.20;;;;;;5074321;28;20025;-73
2021/01/27 01:35:31;;;;;;;8.98;4.78;;;3.70;80.90;;;;;;5074599;28;20107;-74
2021/01/27 01:37:56;;;;;;;12.00;4.90;;;3.70;80.80;;;;;;5073143;28;20107;-74
2021/01/27 01:40:47;;;;;;;9.00;4.60;;;3.70;81.00;;;;;;5073020;28;20033;-74
2021/01/27 01:43:24;;;;;;;12.30;4.30;;;3.70;81.00;;;;;;5071174;28;20120;-74
2021/01/27 01:46:03;;;;;;;11.60;4.43;;;3.70;81.20;;;;;;5072875;28;20036;-73
2021/01/27 01:48:51;;;;;;;13.23;4.70;;;3.60;81.20;;;;;;5072706;28;20067;-74
2021/01/27 01:51:30;;;;;;;8.00;4.00;;;3.70;81.50;;;;;;5072675;28;20055;-74
2021/01/27 01:54:00;;;;;;;8.53;4.00;;;3.60;81.60;;;;;;5072526;28;20021;-74
2021/01/27 01:56:31;;;;;;;9.40;4.40;;;3.70;82.00;;;;;;5074002;28;20031;-74
2021/01/27 01:59:01;;;;;;;10.57;4.40;;;3.70;82.00;;;;;;5072499;28;20494;-74
2021/01/27 02:01:27;;;;;;;9.47;4.40;;;3.60;82.00;;;;;;5073850;28;20476;-74
2021/01/27 02:03:54;;;;;;;8.73;4.03;;;3.60;82.10;;;;;;5073786;28;20074;-75
2021/01/27 02:06:20;;;;;;;10.37;4.20;;;3.70;82.30;;;;;;5072528;28;20020;-73
2021/01/27 02:08:54;;;;;;;11.97;4.43;;;3.70;82.60;;;;;;5072252;28;20021;-74
2021/01/27 02:11:36;;;;;;;9.10;5.25;;;3.60;82.50;;;;;;5072487;28;20551;-75
2021/01/27 02:14:54;;;;;;;13.77;5.07;;;3.70;82.80;;;;;;5072342;28;20496;-74
2021/01/27 02:17:32;;;;;;;10.27;4.43;;;3.70;83.00;;;;;;5033859;28;20072;-80
2021/01/27 02:20:51;;;;;;;10.00;4.43;;;3.60;83.30;;;;;;5073506;28;20066;-79
2021/01/27 02:23:51;;;;;;;8.13;4.07;;;3.60;83.70;;;;;;5062714;28;20036;-79
2021/01/27 02:26:51;;;;;;;8.13;4.10;;;3.60;84.00;;;;;;5072200;28;20119;-80
2021/01/27 02:29:35;;;;;;;8.10;4.17;;;3.60;84.30;;;;;;5071424;28;20059;-81
2021/01/27 02:32:27;;;;;;;11.23;4.38;;;3.50;84.50;;;;;;5073374;28;20050;-79
2021/01/27 02:35:17;;;;;;;11.43;4.20;;;3.50;84.70;;;;;;5071847;28;20060;-78
2021/01/27 02:37:48;;;;;;;7.13;3.53;;;3.60;84.80;;;;;;5073245;28;20024;-79
2021/01/27 02:40:26;;;;;;;8.37;3.70;;;3.60;85.00;;;;;;5073090;28;20122;-79
2021/01/27 02:43:07;;;;;;;8.73;3.97;;;3.50;85.00;;;;;;5071823;28;20498;-78
2021/01/27 02:45:36;;;;;;;6.83;3.70;;;3.50;85.20;;;;;;5071803;28;20025;-80
2021/01/27 02:48:10;;;;;;;6.97;2.90;;;3.50;85.30;;;;;;5072932;28;20504;-79
2021/01/27 02:50:47;;;;;;;7.20;3.67;;;3.50;85.40;;;;;;5071969;28;20032;-80
2021/01/27 02:53:24;;;;;;;6.83;3.20;;;3.40;85.60;;;;;;5073150;28;20017;-78
2021/01/27 02:56:02;;;;;;;8.10;3.13;;;3.50;85.60;;;;;;5072994;28;20020;-80
2021/01/27 02:58:39;;;;;;;6.83;3.10;;;3.50;85.70;;;;;;5071539;28;20036;-80
2021/01/27 03:01:17;;;;;;;5.97;3.17;;;3.50;85.60;;;;;;5071538;28;20495;-80
2021/01/27 03:03:48;;;;;;;6.40;3.13;;;3.50;85.60;;;;;;5072940;28;20056;-80
2021/01/27 03:06:18;;;;;;;9.53;3.90;;;3.50;85.60;;;;;;5072868;28;20029;-80
2021/01/27 03:09:09;;;;;;;8.07;3.10;;;3.50;85.60;;;;;;5072787;28;20036;-80
2021/01/27 03:11:35;;;;;;;6.30;2.87;;;3.50;85.70;;;;;;5071656;28;20443;-80
2021/01/27 03:14:03;;;;;;;9.67;2.87;;;3.50;86.00;;;;;;5054957;28;20029;-80
2021/01/27 03:16:33;;;;;;;6.63;2.17;;;3.50;85.70;;;;;;5072984;28;20032;-79
2021/01/27 03:19:06;;;;;;;7.93;3.00;;;3.50;85.80;;;;;;5071482;28;20038;-80
2021/01/27 03:21:58;;;;;;;5.43;1.75;;;3.50;85.70;;;;;;5071596;28;20052;-80
2021/01/27 03:24:24;;;;;;;5.87;1.93;;;3.50;85.90;;;;;;5072900;28;20050;-80
2021/01/27 03:27:00;;;;;;;4.33;2.20;;;3.50;86.10;;;;;;5072706;28;20028;-75
2021/01/27 03:29:41;;;;;;;4.93;2.23;;;3.50;86.10;;;;;;5072775;28;20078;-76
2021/01/27 03:32:13;;;;;;;4.40;2.00;;;3.50;86.10;;;;;;5071299;28;20083;-76
2021/01/27 03:34:43;;;;;;;5.43;2.37;;;3.50;86.20;;;;;;5071419;28;20059;-74
2021/01/27 03:37:18;;;;;;;4.90;2.03;;;3.50;86.20;;;;;;5072642;28;20028;-74
2021/01/27 03:39:48;;;;;;;7.50;2.53;;;3.40;86.30;;;;;;5072665;28;20099;-75
2021/01/27 03:42:31;;;;;;;5.70;2.27;;;3.40;86.40;;;;;;5076600;28;20047;-77
2021/01/27 03:45:05;;;;;;;5.43;2.33;;;3.50;86.70;;;;;;5075374;28;20025;-75
2021/01/27 03:47:55;;;;;;;7.50;2.40;;;3.40;86.60;;;;;;5076282;28;20055;-75
2021/01/27 03:50:24;;;;;;;5.83;1.97;;;3.40;86.80;;;;;;5075289;28;20047;-75
2021/01/27 03:53:00;;;;;;;4.67;2.20;;;3.40;86.90;;;;;;5076754;28;20467;-74
2021/01/27 03:55:52;;;;;;;5.80;2.60;;;3.40;87.00;;;;;;5075047;28;20013;-74
2021/01/27 03:58:29;;;;;;;7.70;2.63;;;3.40;87.20;;;;;;5076352;28;20052;-73
2021/01/27 04:01:09;;;;;;;7.03;2.20;;;3.40;87.40;;;;;;5076217;28;20103;-74
2021/01/27 04:03:35;;;;;;;6.27;2.37;;;3.40;87.70;;;;;;5074726;28;20384;-73
2021/01/27 04:06:02;;;;;;;6.87;2.40;;;3.30;87.90;;;;;;5075975;28;20029;-75
2021/01/27 04:08:27;;;;;;;6.13;1.90;;;3.30;88.00;;;;;;5074682;28;20437;-74
2021/01/27 04:10:53;;;;;;;9.13;3.80;;;3.30;88.10;;;;;;5074729;28;20074;-79
2021/01/27 04:13:19;;;;;;;4.03;1.70;;;3.30;88.00;;;;;;5076030;28;20035;-78
2021/01/27 04:15:45;;;;;;;6.53;2.30;;;3.30;88.10;;;;;;5075801;28;20063;-80
2021/01/27 04:18:10;;;;;;;6.27;2.20;;;3.40;88.30;;;;;;5074598;28;20040;-78
2021/01/27 04:20:36;;;;;;;3.93;1.90;;;3.40;88.30;;;;;;5074615;28;20037;-80
2021/01/27 04:23:02;;;;;;;4.43;1.93;;;3.40;88.20;;;;;;5075821;28;20039;-79
2021/01/27 04:25:28;;;;;;;6.27;2.23;;;3.40;88.30;;;;;;5074528;28;20066;-78
2021/01/27 04:27:54;;;;;;;7.37;2.10;;;3.40;88.30;;;;;;5074474;28;20075;-80
2021/01/27 04:30:23;;;;;;;4.40;2.23;;;3.40;88.40;;;;;;5074271;28;20115;-79
2021/01/27 04:32:49;;;;;;;9.13;2.13;;;3.40;88.30;;;;;;5074177;28;20357;-79
2021/01/27 04:35:16;;;;;;;6.27;2.73;;;3.40;88.90;;;;;;5074407;28;20039;-79
2021/01/27 04:37:42;;;;;;;6.43;2.23;;;3.30;88.30;;;;;;5074258;28;20021;-80
2021/01/27 04:40:11;;;;;;;5.27;2.17;;;3.30;88.50;;;;;;5074264;28;20082;-80
2021/01/27 04:42:37;;;;;;;7.10;2.23;;;3.30;88.60;;;;;;5074199;28;20086;-78
2021/01/27 04:45:04;;;;;;;5.57;2.53;;;3.30;88.90;;;;;;5074213;28;20044;-78
2021/01/27 04:47:52;;;;;;;5.87;2.23;;;3.30;89.00;;;;;;5076636;28;20479;-80
2021/01/27 04:50:23;;;;;;;5.07;2.03;;;3.30;89.20;;;;;;5078761;28;20045;-81
2021/01/27 04:53:11;;;;;;;6.53;3.20;;;3.30;89.30;;;;;;5074530;28;20025;-80
2021/01/27 04:56:01;;;;;;;4.90;2.50;;;3.30;89.50;;;;;;5075181;28;20046;-80
2021/01/27 04:58:32;;;;;;;6.93;2.53;;;3.30;89.70;;;;;;5073834;28;20035;-81
2021/01/27 05:01:21;;;;;;;6.90;2.33;;;3.20;89.80;;;;;;5079490;28;20402;-81
2021/01/27 05:04:02;;;;;;;4.73;2.17;;;3.30;90.00;;;;;;5069014;28;20434;-78
2021/01/27 05:06:31;;;;;;;4.80;2.43;;;3.20;90.00;;;;;;5072615;28;20028;-80
2021/01/27 05:09:04;;;;;;;6.93;2.30;;;3.20;90.10;;;;;;5073237;28;20609;-79
2021/01/27 05:11:30;;;;;;;5.53;2.77;;;3.30;90.20;;;;;;5075051;28;20052;-80
2021/01/27 05:14:00;;;;;;;8.73;3.43;;;3.30;90.20;;;;;;5056981;28;20557;-80
2021/01/27 05:16:28;;;;;;;7.30;2.87;;;3.30;90.30;;;;;;5073408;28;20024;-80
2021/01/27 05:18:59;;;;;;;5.10;2.23;;;3.20;90.40;;;;;;5074630;28;20021;-80
2021/01/27 05:21:37;;;;;;;6.37;2.70;;;3.20;90.50;;;;;;5074758;28;20064;-79
2021/01/27 05:24:04;;;;;;;6.60;2.77;;;3.20;90.50;;;;;;5073207;28;20063;-80
2021/01/27 05:27:13;;;;;;;8.17;3.07;;;3.20;90.80;;;;;;5073139;28;20484;-80
2021/01/27 05:29:58;;;;;;;8.07;3.27;;;3.20;90.70;;;;;;5072886;28;20082;-81
2021/01/27 05:32:27;;;;;;;5.87;2.97;;;3.20;90.80;;;;;;5072756;28;20032;-78
2021/01/27 05:34:57;;;;;;;8.13;3.10;;;3.20;91.10;;;;;;5074301;28;20040;-81
2021/01/27 05:37:28;;;;;;;8.53;3.90;;;3.20;91.20;;;;;;5074416;28;20511;-81
2021/01/27 05:40:15;;;;;;;7.90;3.83;;;3.10;91.30;;;;;;5074311;28;20024;-79
2021/01/27 05:42:43;;;;;;;6.40;2.90;;;3.10;91.50;;;;;;5072889;28;20107;-79
2021/01/27 05:45:33;;;;;;;7.77;3.33;;;3.10;91.60;;;;;;5072858;28;20028;-80
2021/01/27 05:48:24;;;;;;;8.17;3.93;;;3.10;91.70;;;;;;5074005;28;20083;-81
2021/01/27 05:50:52;;;;;;;6.43;3.17;;;3.00;91.80;;;;;;5074207;28;20036;-80
2021/01/27 05:53:27;;;;;;;8.23;3.67;;;3.00;91.90;;;;;;5072891;28;20115;-80
2021/01/27 05:56:19;;;;;;;6.67;3.33;;;3.00;91.90;;;;;;5074184;28;20024;-80
2021/01/27 05:58:54;;;;;;;6.07;3.17;;;3.00;91.90;;;;;;5072681;28;20116;-79
2021/01/27 06:01:31;;;;;;;7.53;3.40;;;3.00;92.30;;;;;;5072873;28;20021;-79
2021/01/27 06:04:21;;;;;;;6.97;3.70;;;3.00;92.10;;;;;;5071616;28;20016;-80
2021/01/27 06:06:50;;;;;;;7.27;3.67;;;3.00;92.10;;;;;;5072513;28;20484;-80
2021/01/27 06:09:42;;;;;;;9.57;3.77;;;3.00;92.20;;;;;;5072578;28;20039;-80
2021/01/27 06:12:20;;;;;;;7.87;3.67;;;3.00;92.30;;;;;;5072552;28;20377;-81
2021/01/27 06:15:08;;;;;;;6.50;3.53;;;3.00;92.40;;;;;;5072847;28;20028;-80
2021/01/27 06:17:45;;;;;;;7.97;3.97;;;3.00;92.50;;;;;;5072497;28;20115;-79
2021/01/27 06:20:30;;;;;;;7.90;3.97;;;3.00;92.60;;;;;;5073664;28;20078;-78
2021/01/27 06:23:18;;;;;;;6.73;3.60;;;2.90;92.70;;;;;;5073674;28;20032;-78
2021/01/27 06:26:05;;;;;;;7.07;3.80;;;2.90;92.90;;;;;;5072300;28;20024;-79
2021/01/27 06:29:01;;;;;;;6.43;2.87;;;2.90;92.90;;;;;;5080997;28;20020;-79
2021/01/27 06:31:42;;;;;;;10.30;4.47;;;2.90;92.80;;;;;;5091123;28;20047;-80
2021/01/27 06:34:16;;;;;;;8.00;4.00;;;2.90;93.20;;;;;;5092006;28;20020;-79
2021/01/27 06:36:54;;;;;;;7.70;3.70;;;2.90;93.20;;;;;;5092926;28;20016;-79
2021/01/27 06:39:22;;;;;;;12.00;4.67;;;2.90;93.20;;;;;;5093508;28;20027;-79
2021/01/27 06:41:54;;;;;;;7.70;3.97;;;2.90;93.30;;;;;;5093525;28;20020;-81
2021/01/27 06:44:40;;;;;;;8.43;4.10;;;2.90;93.20;;;;;;5092154;28;20066;-78
2021/01/27 06:47:30;;;;;;;7.90;4.37;;;2.90;93.40;;;;;;5081856;28;20085;-80
2021/01/27 06:50:14;;;;;;;7.50;4.33;;;2.80;93.40;;;;;;5093311;28;20051;-78
2021/01/27 06:53:05;;;;;;;7.15;4.15;;;2.90;93.60;;;;;;5093367;28;20020;-79
2021/01/27 06:55:43;;;;;;;7.20;3.93;;;2.80;93.60;;;;;;5083315;28;20379;-83
2021/01/27 06:58:39;;;;;;;10.73;5.37;;;2.80;93.70;;;;;;5092474;28;20122;-83
2021/01/27 07:01:45;;;;;;;8.40;4.80;;;2.80;94.00;;;;;;5092100;28;20063;-84
2021/01/27 07:04:45;;;;;;;8.60;4.97;;;2.70;94.00;;;;;;5091943;28;20059;-84
2021/01/27 07:07:25;;;;;;;8.83;5.50;;;2.70;94.10;;;;;;5085941;28;20454;-83
2021/01/27 07:10:19;;;;;;;8.60;5.30;;;2.70;94.30;;;;;;5091974;28;20028;-82
2021/01/27 07:12:49;;;;;;;10.13;5.97;;;2.70;94.30;;;;;;5091693;28;20123;-83
2021/01/27 07:15:52;;;;;;;8.50;5.50;;;2.70;94.40;;;;;;5094061;28;20448;-82
2021/01/27 07:18:34;;;;;;;11.73;5.93;;;2.70;94.40;;;;;;5097565;28;20036;-82
2021/01/27 07:21:09;;;;;;;11.03;5.93;;;2.70;94.50;;;;;;5096745;28;20349;-82
2021/01/27 07:23:50;;;;;;;12.13;6.03;;;2.70;94.60;;;;;;5102935;28;20049;-82
2021/01/27 07:26:41;;;;;;;9.83;5.80;;;2.70;94.60;;;;;;5096420;28;20549;-80
2021/01/27 07:29:19;;;;;;;8.90;5.50;;;2.70;94.60;;;;;;5095862;28;20361;-80
2021/01/27 07:31:55;;;;;;;10.07;5.93;;;2.70;94.60;;;;;;5096974;28;20467;-79
2021/01/27 07:34:57;;;;;;;13.43;6.27;;;2.70;94.70;;;;;;5095952;28;20017;-79
2021/01/27 07:37:35;;;;;;;9.37;6.17;;;2.70;94.60;;;;;;5097088;28;20102;-79
2021/01/27 07:40:36;;;;;;;10.77;6.50;;;2.70;94.80;;;;;;5095649;28;20020;-81
2021/01/27 07:43:14;;;;;;;9.30;5.77;;;2.70;94.70;;;;;;5076557;28;20480;-79
2021/01/27 07:45:47;;;;;;;10.97;6.77;;;2.80;94.80;;;;;;5096902;28;20532;-81
2021/01/27 07:48:25;;;;;;;9.27;5.97;;;2.70;94.80;;;;;;5095334;28;20031;-80
2021/01/27 07:51:25;;;;;;;11.37;7.53;;;2.80;94.90;;;;;;5096870;28;20040;-79
2021/01/27 07:54:01;;;;;;;12.23;6.90;;;2.80;94.90;;;;;;5092670;28;20044;-81
2021/01/27 07:56:42;;;;;;;11.30;7.20;;;2.80;95.00;;;;;;5095362;28;20020;-81
2021/01/27 07:59:13;;;;;;;13.90;7.47;;;2.80;94.90;;;;;;5096521;28;20024;-81
2021/01/27 08:01:51;;;;;;;10.73;7.23;;;2.80;95.00;;;;;;5096447;28;20032;-80
2021/01/27 08:04:22;;;;;;;12.97;8.47;;;2.80;95.10;;;;;;5091098;28;20028;-81
2021/01/27 08:06:54;;;;;;;10.97;7.00;;;2.80;95.10;;;;;;5078144;28;20028;-80
2021/01/27 08:09:42;;;;;;;10.53;6.73;;;2.90;95.10;;;;;;5075916;28;20028;-79
2021/01/27 08:12:30;;;;;;;9.53;6.27;;;2.90;95.10;;;;;;5074916;28;20028;-80
2021/01/27 08:15:25;;;;;;;12.30;7.80;;;2.90;95.10;;;;;;5074798;28;20027;-81
2021/01/27 08:17:54;;;;;;;14.80;7.60;;;2.90;95.10;;;;;;5075582;28;20033;-80
2021/01/27 08:20:31;;;;;;;10.83;7.30;;;3.00;95.20;;;;;;5076211;28;20078;-80
2021/01/27 08:23:19;;;;;;;11.97;7.67;;;3.00;95.50;;;;;;5074758;28;20392;-79
2021/01/27 08:26:03;;;;;;;11.80;7.53;;;3.00;95.30;;;;;;5075113;28;20071;-79
2021/01/27 08:28:38;;;;;;;10.73;7.28;;;3.00;95.30;;;;;;5073791;28;20031;-79
2021/01/27 08:31:07;;;;;;;10.30;7.00;;;3.00;95.30;;;;;;5074452;28;20111;-76
2021/01/27 08:33:48;;;;;;;13.80;8.10;;;3.00;95.40;;;;;;5075676;28;20025;-81
2021/01/27 08:36:18;;;;;;;11.57;7.80;;;3.00;95.50;;;;;;5075667;28;20017;-81
2021/01/27 08:38:57;;;;;;;12.20;7.80;;;3.00;95.50;;;;;;5074370;28;20036;-80
2021/01/27 08:41:45;;;;;;;10.73;7.23;;;3.00;95.60;;;;;;5075756;28;20024;-80
2021/01/27 08:44:22;;;;;;;12.63;7.73;;;3.10;95.70;;;;;;5074481;28;20427;-78
2021/01/27 08:47:09;;;;;;;11.20;6.93;;;3.10;95.80;;;;;;5075570;28;20025;-80
2021/01/27 08:49:37;;;;;;;11.80;6.73;;;3.10;95.80;;;;;;5069986;28;20044;-79
2021/01/27 08:52:23;;;;;;;9.47;6.27;;;3.10;95.80;;;;;;5075616;28;20046;-79
2021/01/27 08:54:51;;;;;;;10.87;7.43;;;3.10;95.90;;;;;;5074769;28;20075;-81
2021/01/27 08:57:29;;;;;;;11.00;7.20;;;3.10;95.90;;;;;;5074195;28;20021;-80
2021/01/27 09:00:00;;;;;;;9.83;6.53;;;3.10;95.90;;;;;;5075412;28;20531;-79
2021/01/27 09:02:47;;;;;;;10.50;6.63;;;3.20;96.00;;;;;;5074096;28;20064;-80
2021/01/27 09:05:22;;;;;;;10.10;6.37;;;3.20;95.90;;;;;;5075273;28;20040;-80
2021/01/27 09:07:52;;;;;;;10.13;6.87;;;3.20;96.00;;;;;;5073898;28;20159;-80
2021/01/27 09:10:21;;;;;;;11.33;7.23;;;3.30;96.00;;;;;;5073810;28;20487;-80
2021/01/27 09:12:48;;;;;;;10.13;7.33;;;3.40;96.10;;;;;;5073842;28;20480;-79
2021/01/27 09:15:34;;;;;;;12.37;8.20;;;3.30;96.10;;;;;;5073768;28;20020;-79
2021/01/27 09:18:03;;;;;;;10.90;7.27;;;3.30;96.10;;;;;;5073649;28;20017;-80
2021/01/27 09:20:30;;;;;;;11.03;7.27;;;3.30;96.10;;;;;;5074806;28;20036;-81
2021/01/27 09:23:01;;;;;;;10.83;6.77;;;3.30;96.20;;;;;;5074808;28;20052;-78
2021/01/27 09:25:28;;;;;;;11.07;7.17;;;3.30;96.20;;;;;;5073439;28;20031;-79
2021/01/27 09:28:04;;;;;;;10.53;6.57;;;3.30;96.30;;;;;;5074677;28;20060;-79
2021/01/27 09:30:30;;;;;;;11.23;6.83;;;3.40;96.40;;;;;;5074810;28;20016;-78
2021/01/27 09:33:17;;;;;;;13.20;7.73;;;3.40;96.40;;;;;;5073383;28;20472;-78
2021/01/27 09:35:43;;;;;;;11.70;7.00;;;3.40;96.40;;;;;;5074669;28;20025;-80
2021/01/27 09:38:17;;;;;;;12.40;7.13;;;3.40;96.40;;;;;;5056544;28;20074;-80
2021/01/27 09:40:46;;;;;;;11.25;6.95;;;3.40;96.40;;;;;;5073118;28;20024;-78
2021/01/27 09:43:18;;;;;;;11.10;7.40;;;3.40;96.50;;;;;;5073124;28;20025;-78
2021/01/27 09:45:46;;;;;;;11.33;7.30;;;3.50;96.50;;;;;;5074299;28;20029;-80
2021/01/27 09:48:15;;;;;;;14.67;8.40;;;3.50;96.80;;;;;;5072997;28;20115;-78
2021/01/27 09:51:04;;;;;;;14.93;9.87;;;3.50;96.50;;;;;;5072860;28;20403;-77
2021/01/27 09:53:34;;;;;;;14.23;9.37;;;3.50;96.60;;;;;;5072784;28;20040;-77
2021/01/27 09:56:01;;;;;;;14.43;9.07;;;3.50;96.50;;;;;;5074341;28;20054;-79
2021/01/27 09:58:27;;;;;;;14.90;9.90;;;3.50;96.80;;;;;;5074212;28;20032;-79
2021/01/27 10:01:04;;;;;;;15.83;10.53;;;3.60;96.50;;;;;;5072891;28;20074;-78
2021/01/27 10:03:34;;;;;;;15.87;10.33;;;3.60;96.50;;;;;;5073194;28;20372;-79
2021/01/27 10:06:02;;;;;;;18.27;11.57;;;3.60;96.50;;;;;;5072703;28;20434;-78
2021/01/27 10:08:36;;;;;;;16.10;11.47;;;3.70;96.50;;;;;;5072456;28;20036;-81
2021/01/27 10:11:20;;;;;;;17.33;10.85;;;3.70;96.50;;;;;;5073811;28;20020;-79
2021/01/27 10:13:46;;;;;;;16.90;11.55;;;3.70;96.50;;;;;;5073769;28;20029;-79
2021/01/27 10:16:13;;;;;;;18.13;10.97;;;3.70;96.60;;;;;;5055925;28;20044;-79
2021/01/27 10:18:41;;;;;;;17.10;11.30;;;3.70;96.60;;;;;;5072444;28;20033;-80
2021/01/27 10:21:15;;;;;;;18.23;11.83;;;3.70;96.50;;;;;;5073670;28;20082;-78
2021/01/27 10:23:47;;;;;;;17.20;12.00;;;3.80;96.60;;;;;;5073693;28;20032;-81
2021/01/27 10:26:22;;;;;;;16.87;11.57;;;3.80;96.60;;;;;;5072409;28;20082;-80
2021/01/27 10:28:47;;;;;;;17.40;11.30;;;3.90;96.60;;;;;;5072333;28;20032;-80
2021/01/27 10:31:34;;;;;;;16.43;11.20;;;3.90;96.60;;;;;;5072406;28;20029;-80
2021/01/27 10:33:59;;;;;;;16.80;12.00;;;3.90;96.60;;;;;;5073430;28;20028;-79
2021/01/27 10:36:39;;;;;;;18.23;11.90;;;3.90;96.50;;;;;;5072358;28;20021;-81
2021/01/27 10:39:23;;;;;;;19.47;13.57;;;4.00;96.60;;;;;;5072172;28;20480;-80
2021/01/27 10:42:06;;;;;;;18.65;12.52;;;4.00;96.60;;;;;;5077501;28;20510;-79
2021/01/27 10:44:37;;;;;;;21.20;13.50;;;4.10;96.60;;;;;;5093824;28;20136;-80
2021/01/27 10:47:09;;;;;;;17.53;12.10;;;4.10;96.50;;;;;;5090158;28;20036;-80
2021/01/27 10:49:41;;;;;;;19.27;12.63;;;4.10;96.50;;;;;;5092920;28;20024;-81
2021/01/27 10:52:09;;;;;;;21.73;15.20;;;4.20;96.50;;;;;;5085807;28;20028;-80
2021/01/27 10:54:37;;;;;;;20.57;13.30;;;4.20;96.50;;;;;;5089916;28;20040;-79
2021/01/27 10:57:02;;;;;;;21.27;13.73;;;4.20;96.50;;;;;;5084289;28;20032;-81
2021/01/27 10:59:28;;;;;;;20.47;14.23;;;4.20;96.40;;;;;;5082258;28;20029;-80
2021/01/27 11:01:54;;;;;;;24.93;14.53;;;4.20;96.50;;;;;;5075613;28;20024;-80
2021/01/27 11:04:19;;;;;;;23.23;14.77;;;4.20;96.40;;;;;;5076550;28;20480;-81
2021/01/27 11:06:45;;;;;;;22.90;15.03;;;4.30;96.40;;;;;;5080783;28;20073;-81
2021/01/27 11:09:11;;;;;;;20.83;14.30;;;4.30;96.50;;;;;;5075380;28;20040;-82
2021/01/27 11:11:38;;;;;;;22.87;14.77;;;4.30;96.40;;;;;;5092297;28;20028;-81
2021/01/27 11:14:05;;;;;;;22.87;14.50;;;4.30;96.40;;;;;;5091938;28;20099;-80
2021/01/27 11:16:31;;;;;;;26.03;15.23;;;4.40;96.40;;;;;;5075115;28;20021;-80
2021/01/27 11:18:56;;;;;;;24.00;15.23;;;4.40;96.40;;;;;;5092340;28;20031;-81
2021/01/27 11:21:22;;;;;;;24.90;16.17;;;4.50;96.50;;;;;;5093150;28;20032;-80
2021/01/27 11:23:48;;;;;;;25.17;16.60;;;4.50;96.50;;;;;;5091916;28;20031;-80
2021/01/27 11:26:20;;;;;;;27.27;17.47;;;4.50;96.50;;;;;;5092256;28;20032;-80
2021/01/27 11:28:48;;;;;;;23.77;16.20;;;4.50;96.50;;;;;;5093169;28;20060;-79
2021/01/27 11:31:14;;;;;;;31.03;19.07;;;4.60;96.40;;;;;;5093201;28;20020;-79
2021/01/27 11:33:40;;;;;;;25.43;16.50;;;4.60;96.50;;;;;;5091816;28;20101;-79
2021/01/27 11:36:06;;;;;;;27.50;16.97;;;4.60;96.50;;;;;;5092054;28;20059;-80
2021/01/27 11:38:31;;;;;;;28.17;17.97;;;4.60;96.50;;;;;;5093223;28;20028;-79
2021/01/27 11:40:57;;;;;;;28.23;18.27;;;4.60;96.50;;;;;;5092999;28;20034;-80
2021/01/27 11:43:22;;;;;;;27.43;16.90;;;4.60;96.50;;;;;;5075041;28;20032;-80
2021/01/27 11:45:48;;;;;;;27.57;17.87;;;4.60;96.60;;;;;;5091886;28;20032;-79
2021/01/27 11:48:14;;;;;;;29.93;19.67;;;4.70;96.70;;;;;;5091760;28;20056;-80
2021/01/27 11:50:39;;;;;;;26.67;17.50;;;4.70;96.60;;;;;;5091746;28;20487;-79
2021/01/27 11:53:05;;;;;;;29.57;19.20;;;4.70;96.60;;;;;;5091678;28;20033;-79
2021/01/27 11:55:30;;;;;;;27.70;18.13;;;4.70;96.60;;;;;;5058240;28;20027;-80
2021/01/27 11:57:56;;;;;;;29.07;18.90;;;4.70;96.60;;;;;;5074961;28;20089;-80
2021/01/27 12:00:22;;;;;;;29.70;18.97;;;4.80;96.60;;;;;;5091816;28;20028;-79
2021/01/27 12:02:48;;;;;;;29.23;19.47;;;4.80;96.60;;;;;;5094823;28;20028;-80
2021/01/27 12:05:16;;;;;;;29.70;18.93;;;4.80;96.60;;;;;;5078577;28;20028;-79
2021/01/27 12:07:42;;;;;;;28.37;18.90;;;4.90;96.60;;;;;;5095307;28;20039;-80
2021/01/27 12:10:08;;;;;;;30.17;19.17;;;4.90;96.60;;;;;;5078346;28;20020;-79
2021/01/27 12:12:34;;;;;;;31.03;20.23;;;5.00;96.70;;;;;;5078394;28;20020;-80
2021/01/27 12:14:59;;;;;;;30.60;20.83;;;5.00;96.60;;;;;;5078242;28;20131;-79
2021/01/27 12:17:26;;;;;;;32.13;20.60;;;5.10;96.70;;;;;;5095339;28;20030;-79
2021/01/27 12:19:52;;;;;;;35.47;22.20;;;5.10;96.70;;;;;;5095151;28;20115;-79
2021/01/27 12:22:17;;;;;;;35.10;20.63;;;5.10;96.60;;;;;;5095442;28;20058;-79
2021/01/27 12:24:43;;;;;;;31.80;20.43;;;5.20;96.60;;;;;;5095376;28;20035;-79
2021/01/27 12:27:08;;;;;;;33.47;20.63;;;5.20;96.50;;;;;;5094942;28;20028;-79
2021/01/27 12:29:34;;;;;;;29.17;20.73;;;5.20;96.50;;;;;;5095424;28;20479;-78
2021/01/27 12:32:00;;;;;;;39.53;23.97;;;5.30;96.50;;;;;;5094925;28;20388;-80
2021/01/27 12:34:26;;;;;;;38.73;23.97;;;5.30;96.50;;;;;;5069948;28;20020;-80
2021/01/27 12:36:52;;;;;;;37.20;23.30;;;5.30;96.50;;;;;;5072888;28;20479;-83
2021/01/27 12:39:17;;;;;;;34.30;22.13;;;5.30;96.50;;;;;;5074003;28;20116;-81
2021/01/27 12:41:45;;;;;;;35.90;22.20;;;5.40;96.40;;;;;;5074370;28;20059;-81
2021/01/27 12:44:11;;;;;;;33.80;21.10;;;5.40;96.40;;;;;;5074312;28;20020;-82
2021/01/27 12:46:36;;;;;;;32.23;21.53;;;5.50;96.40;;;;;;5074187;28;20035;-81
2021/01/27 12:49:03;;;;;;;35.30;21.60;;;5.50;96.40;;;;;;5074094;28;20400;-81
2021/01/27 12:51:28;;;;;;;35.20;21.23;;;5.50;96.40;;;;;;5075313;28;20048;-81
2021/01/27 12:53:54;;;;;;;32.33;21.83;;;5.50;96.40;;;;;;5091011;28;20032;-81
2021/01/27 12:56:20;;;;;;;35.60;22.33;;;5.50;96.40;;;;;;5073489;28;20162;-75
2021/01/27 12:58:45;;;;;;;32.63;21.20;;;5.60;96.40;;;;;;5076400;28;20036;-75
2021/01/27 13:01:13;;;;;;;32.30;21.17;;;5.60;96.30;;;;;;5078043;28;20028;-74
2021/01/27 13:03:39;;;;;;;35.90;21.70;;;5.60;96.30;;;;;;5077096;28;20032;-74
2021/01/27 13:06:04;;;;;;;34.33;22.53;;;5.70;96.30;;;;;;5079165;28;20085;-74
2021/01/27 13:08:30;;;;;;;37.43;22.73;;;5.70;96.50;;;;;;5088742;28;20036;-74
2021/01/27 13:10:56;;;;;;;34.30;21.90;;;5.70;96.30;;;;;;5080216;28;20024;-75
2021/01/27 13:13:21;;;;;;;32.60;21.70;;;5.70;96.30;;;;;;5076365;28;20472;-75
2021/01/27 13:15:48;;;;;;;34.23;19.90;;;5.80;96.30;;;;;;5076618;28;20020;-76
2021/01/27 13:18:14;;;;;;;36.20;22.43;;;5.80;96.30;;;;;;5066544;28;20036;-75
2021/01/27 13:20:39;;;;;;;37.07;21.73;;;5.80;96.30;;;;;;5073010;28;20035;-74
2021/01/27 13:23:05;;;;;;;34.47;21.20;;;5.80;96.40;;;;;;5073435;28;20051;-75